createdAt,value
2019-05-14T00:00:15.644Z,1.55
2019-05-14T00:02:45.318Z,2.30
2019-05-14T00:05:14.629Z,1.25
2019-05-14T00:07:44.096Z,1.98
2019-05-14T00:10:15.080Z,2.02
2019-05-14T00:12:44.723Z,1.62
2019-05-14T00:15:14.105Z,1.92
2019-05-14T00:17:43.712Z,1.98
2019-05-14T00:20:13.592Z,2.42
2019-05-14T00:22:45.485Z,1.65
2019-05-14T00:25:17.222Z,1.57
2019-05-14T00:27:46.469Z,2.10
2019-05-14T00:33:47.555Z,2.40
2019-05-14T00:36:24.527Z,2.47
2019-05-14T00:41:51.731Z,2.10
2019-05-14T00:44:21.677Z,1.17
2019-05-14T00:46:51.697Z,2.17
2019-05-14T00:49:21.496Z,1.30
2019-05-14T00:51:53.844Z,3.85
2019-05-14T00:54:23.190Z,1.20
2019-05-14T00:56:52.816Z,3.33
2019-05-14T00:59:23.680Z,1.77
2019-05-14T01:01:53.154Z,1.77
2019-05-14T01:04:22.706Z,1.05
2019-05-14T01:06:51.959Z,1.02
2019-05-14T01:09:21.814Z,1.17
2019-05-14T01:11:56.090Z,2.72
2019-05-14T01:14:25.635Z,1.52
2019-05-14T01:16:55.235Z,1.30
2019-05-14T01:19:56.176Z,1.32
2019-05-14T01:22:42.911Z,2.02
2019-05-14T01:25:23.699Z,1.62
2019-05-14T01:27:52.772Z,1.40
2019-05-14T01:30:25.248Z,1.50
2019-05-14T01:32:56.182Z,2.25
2019-05-14T01:36:09.210Z,1.22
2019-05-14T01:38:38.705Z,1.90
2019-05-14T01:43:47.254Z,1.62
2019-05-14T01:46:16.752Z,2.02
2019-05-14T01:48:52.168Z,1.22
2019-05-14T01:51:24.260Z,1.57
2019-05-14T01:53:55.547Z,0.53
2019-05-14T01:56:24.654Z,1.05
2019-05-14T01:59:01.837Z,1.10
2019-05-14T02:01:31.693Z,0.80
2019-05-14T02:04:16.414Z,1.22
2019-05-14T02:06:47.251Z,2.10
2019-05-14T02:09:18.540Z,1.33
2019-05-14T02:12:02.338Z,0.98
2019-05-14T02:14:42.142Z,1.32
2019-05-14T02:17:23.344Z,1.27
2019-05-14T02:23:04.177Z,0.93
2019-05-14T02:25:33.801Z,0.80
2019-05-14T02:28:03.790Z,1.27
2019-05-14T02:30:48.364Z,1.87
2019-05-14T02:35:33.162Z,2.45
2019-05-14T02:38:02.762Z,0.82
2019-05-14T02:40:32.534Z,1.25
2019-05-14T02:43:03.216Z,1.15
2019-05-14T02:45:35.575Z,1.10
2019-05-14T02:48:09.566Z,1.05
2019-05-14T02:50:41.821Z,1.10
2019-05-14T02:53:11.084Z,1.20
2019-05-14T02:55:40.830Z,0.80
2019-05-14T02:58:10.231Z,0.80
2019-05-14T03:00:51.475Z,0.88
2019-05-14T03:03:21.245Z,2.67
2019-05-14T03:05:50.781Z,1.90
2019-05-14T03:08:33.616Z,1.60
2019-05-14T03:11:09.577Z,0.70
2019-05-14T03:13:39.999Z,1.85
2019-05-14T03:16:22.342Z,1.07
2019-05-14T03:18:41.120Z,0.80
2019-05-14T03:21:10.420Z,1.02
2019-05-14T03:23:39.928Z,1.55
2019-05-14T03:26:09.756Z,1.45
2019-05-14T03:28:42.278Z,1.00
2019-05-14T03:31:13.529Z,0.75
2019-05-14T03:33:44.385Z,1.30
2019-05-14T03:39:03.181Z,1.22
2019-05-14T03:41:32.504Z,1.55
2019-05-14T03:44:21.215Z,0.68
2019-05-14T03:46:55.311Z,2.42
2019-05-14T03:49:23.398Z,0.98
2019-05-14T03:52:00.773Z,0.88
2019-05-14T03:54:50.211Z,0.90
2019-05-14T03:57:20.185Z,1.92
2019-05-14T03:59:51.202Z,0.98
2019-05-14T04:02:20.314Z,1.50
2019-05-14T04:08:14.527Z,1.85
2019-05-14T04:11:14.136Z,1.00
2019-05-14T04:13:51.304Z,1.25
2019-05-14T04:16:21.422Z,1.15
2019-05-14T04:18:51.132Z,1.22
2019-05-14T04:21:29.494Z,0.53
2019-05-14T04:24:20.000Z,2.45
2019-05-14T04:27:01.988Z,0.80
2019-05-14T04:32:10.755Z,1.12
2019-05-14T04:34:40.405Z,1.32
2019-05-14T04:37:09.916Z,1.10
2019-05-14T04:39:59.295Z,0.90
2019-05-14T04:42:29.740Z,1.55
2019-05-14T04:48:31.216Z,0.90
2019-05-14T04:48:38.651Z,1.42
2019-05-14T04:50:49.934Z,2.20
2019-05-14T04:53:19.883Z,1.27
2019-05-14T04:55:55.754Z,1.67
2019-05-14T04:58:25.205Z,2.87
2019-05-14T05:01:15.421Z,1.27
2019-05-14T05:03:50.012Z,4.42
2019-05-14T05:06:19.208Z,5.95
2019-05-14T05:08:50.131Z,2.80
2019-05-14T05:11:29.361Z,2.50
2019-05-14T05:14:03.475Z,4.15
2019-05-14T05:16:32.827Z,5.47
2019-05-14T05:19:02.643Z,5.95
2019-05-14T05:21:32.167Z,3.25
2019-05-14T05:24:01.556Z,4.87
2019-05-14T05:26:30.894Z,7.30
2019-05-14T05:29:06.636Z,8.38
2019-05-14T05:31:38.079Z,7.03
2019-05-14T05:34:08.912Z,7.55
2019-05-14T05:36:38.372Z,5.75
2019-05-14T05:39:18.956Z,6.00
2019-05-14T05:41:49.223Z,9.40
2019-05-14T05:44:19.004Z,9.30
2019-05-14T05:46:49.347Z,5.60
2019-05-14T05:49:18.926Z,7.33
2019-05-14T05:51:48.576Z,6.25
2019-05-14T05:54:18.675Z,8.33
2019-05-14T05:56:48.265Z,8.33
2019-05-14T05:59:18.957Z,12.53
2019-05-14T06:01:50.265Z,12.23
2019-05-14T06:04:21.593Z,10.53
2019-05-14T06:06:51.042Z,12.45
2019-05-14T06:09:25.004Z,12.50
2019-05-14T06:11:54.545Z,10.45
2019-05-14T06:14:28.967Z,8.35
2019-05-14T06:17:18.906Z,9.88
2019-05-14T06:19:48.628Z,6.72
2019-05-14T06:22:20.991Z,6.22
2019-05-14T06:24:50.456Z,5.40
2019-05-14T06:27:21.990Z,10.08
2019-05-14T06:32:32.459Z,4.30
2019-05-14T06:35:02.017Z,5.87
2019-05-14T06:37:49.101Z,5.65
2019-05-14T06:40:21.605Z,6.90
2019-05-14T06:42:54.510Z,6.28
2019-05-14T06:45:49.571Z,5.83
2019-05-14T06:48:34.679Z,6.58
2019-05-14T06:51:10.194Z,8.05
2019-05-14T06:53:41.652Z,7.50
2019-05-14T06:56:11.210Z,7.90
2019-05-14T06:58:40.574Z,8.20
2019-05-14T07:01:09.984Z,9.38
2019-05-14T07:03:51.976Z,5.50
2019-05-14T07:06:21.766Z,9.83
2019-05-14T07:08:52.749Z,5.30
2019-05-14T07:11:29.167Z,5.28
2019-05-14T07:16:49.281Z,10.03
2019-05-14T07:19:19.246Z,6.30
2019-05-14T07:21:49.374Z,8.55
2019-05-14T07:24:19.455Z,9.10
2019-05-14T07:26:50.423Z,3.37
2019-05-14T07:29:19.793Z,5.07
2019-05-14T07:31:49.275Z,5.10
2019-05-14T07:34:19.479Z,3.42
2019-05-14T07:36:58.625Z,4.03
2019-05-14T07:39:40.449Z,3.72
2019-05-14T07:42:14.782Z,7.05
2019-05-14T07:44:51.156Z,2.27
2019-05-14T07:47:22.698Z,4.08
2019-05-14T07:53:08.443Z,4.20
2019-05-14T07:56:21.686Z,4.20
2019-05-14T07:58:52.276Z,3.05
2019-05-14T08:01:29.148Z,2.12
2019-05-14T08:04:03.049Z,1.92
2019-05-14T08:06:32.797Z,2.33
2019-05-14T08:18:41.039Z,2.80
2019-05-14T08:21:11.687Z,3.72
2019-05-14T08:23:41.170Z,3.02
2019-05-14T08:26:19.847Z,4.08
2019-05-14T08:28:52.447Z,1.80
2019-05-14T08:31:29.565Z,2.95
2019-05-14T08:34:04.530Z,1.77
2019-05-14T08:39:48.817Z,2.08
2019-05-14T08:42:21.910Z,1.95
2019-05-14T08:44:54.351Z,2.67
2019-05-14T08:47:26.218Z,2.85
2019-05-14T08:49:55.432Z,1.35
2019-05-14T08:52:24.770Z,1.70
2019-05-14T08:55:07.279Z,2.33
2019-05-14T08:57:33.893Z,1.60
2019-05-14T09:00:03.426Z,2.17
2019-05-14T09:02:32.823Z,1.30
2019-05-14T09:05:04.425Z,2.35
2019-05-14T09:08:00.300Z,2.02
2019-05-14T09:11:06.030Z,1.82
2019-05-14T09:13:48.809Z,1.32
2019-05-14T09:20:11.011Z,2.22
2019-05-14T09:22:39.785Z,1.70
2019-05-14T09:25:09.831Z,1.67
2019-05-14T09:27:41.486Z,1.82
2019-05-14T09:32:39.561Z,1.98
2019-05-14T09:35:09.818Z,2.67
2019-05-14T09:37:39.924Z,2.35
2019-05-14T09:40:09.338Z,1.47
2019-05-14T09:42:39.310Z,1.42
2019-05-14T09:45:10.867Z,1.07
2019-05-14T09:47:58.719Z,2.37
2019-05-14T09:50:38.154Z,1.55
2019-05-14T09:53:02.311Z,1.32
2019-05-14T09:55:34.604Z,1.62
2019-05-14T09:58:03.891Z,1.82
2019-05-14T10:00:33.615Z,2.17
2019-05-14T10:03:03.087Z,3.50
2019-05-14T10:05:32.799Z,1.60
2019-05-14T10:08:09.201Z,2.85
2019-05-14T10:10:39.945Z,1.32
2019-05-14T10:13:09.929Z,1.25
2019-05-14T10:15:39.748Z,1.52
2019-05-14T10:18:28.982Z,1.57
2019-05-14T10:21:02.005Z,1.15
2019-05-14T10:27:08.665Z,2.20
2019-05-14T10:30:04.641Z,1.42
2019-05-14T10:32:34.232Z,1.40
2019-05-14T10:35:08.584Z,0.95
2019-05-14T10:37:40.411Z,1.17
2019-05-14T10:40:10.547Z,1.17
2019-05-14T10:42:40.633Z,1.15
2019-05-14T10:45:13.213Z,2.05
2019-05-14T10:47:42.712Z,1.52
2019-05-14T10:50:13.718Z,1.30
2019-05-14T10:52:42.996Z,1.15
2019-05-14T10:55:34.428Z,2.47
2019-05-14T10:58:13.923Z,1.70
2019-05-14T11:00:44.637Z,1.22
2019-05-14T11:03:30.257Z,2.60
2019-05-14T11:06:02.921Z,1.12
2019-05-14T11:08:51.269Z,1.10
2019-05-14T11:11:20.492Z,1.40
2019-05-14T11:13:49.760Z,0.80
2019-05-14T11:16:28.611Z,1.62
2019-05-14T11:18:57.844Z,1.77
2019-05-14T11:21:29.977Z,0.53
2019-05-14T11:24:00.822Z,2.45
2019-05-14T11:26:39.476Z,1.32
2019-05-14T11:29:25.595Z,1.37
2019-05-14T11:31:57.499Z,1.27
2019-05-14T11:34:28.726Z,2.00
2019-05-14T11:36:58.928Z,0.80
2019-05-14T11:39:39.792Z,2.00
2019-05-14T11:42:09.230Z,1.37
2019-05-14T11:44:58.347Z,0.70
2019-05-14T11:47:29.448Z,1.62
2019-05-14T11:49:59.211Z,1.52
2019-05-14T11:52:28.805Z,1.40
2019-05-14T11:55:00.633Z,0.95
2019-05-14T11:57:30.075Z,1.20
2019-05-14T11:59:59.483Z,0.95
2019-05-14T12:02:29.030Z,0.93
2019-05-14T12:05:02.177Z,0.82
2019-05-14T12:07:31.164Z,2.90
2019-05-14T12:10:00.396Z,0.62
2019-05-14T12:12:32.665Z,1.42
2019-05-14T12:17:59.503Z,2.12
2019-05-14T12:20:39.346Z,1.15
2019-05-14T12:23:04.340Z,1.65
2019-05-14T12:25:38.379Z,1.50
2019-05-14T12:28:13.667Z,1.12
2019-05-14T12:30:42.585Z,1.50
2019-05-14T12:33:12.372Z,1.17
2019-05-14T12:35:42.009Z,2.33
2019-05-14T12:38:11.712Z,1.00
2019-05-14T12:40:44.564Z,2.22
2019-05-14T12:43:15.332Z,0.90
2019-05-14T12:45:44.723Z,1.00
2019-05-14T12:48:23.763Z,1.40
2019-05-14T12:50:53.634Z,1.17
2019-05-14T12:53:23.177Z,2.37
2019-05-14T12:55:56.166Z,1.60
2019-05-14T12:58:28.696Z,1.45
2019-05-14T13:00:59.421Z,1.10
2019-05-14T13:03:30.143Z,0.93
2019-05-14T13:05:59.577Z,1.37
2019-05-14T13:08:28.829Z,3.40
2019-05-14T13:10:58.674Z,1.80
2019-05-14T13:13:29.064Z,3.80
2019-05-14T13:15:58.573Z,1.92
2019-05-14T13:18:29.072Z,0.98
2019-05-14T13:20:58.873Z,1.10
2019-05-14T13:23:29.187Z,4.85
2019-05-14T13:26:06.100Z,4.00
2019-05-14T13:28:36.109Z,11.12
2019-05-14T13:31:05.710Z,4.12
2019-05-14T13:33:35.294Z,2.85
2019-05-14T13:36:06.924Z,4.67
2019-05-14T13:38:35.863Z,1.72
2019-05-14T13:41:05.561Z,1.87
2019-05-14T13:43:35.015Z,6.25
2019-05-14T13:46:05.698Z,4.53
2019-05-14T13:48:39.575Z,1.67
2019-05-14T13:51:11.169Z,3.17
2019-05-14T13:53:40.667Z,1.67
2019-05-14T13:59:12.981Z,2.87
2019-05-14T14:04:24.145Z,3.22
2019-05-14T14:06:59.035Z,2.80
2019-05-14T14:09:31.572Z,3.12
2019-05-14T14:12:43.572Z,1.47
2019-05-14T14:15:15.554Z,2.92
2019-05-14T14:17:54.859Z,4.97
2019-05-14T14:20:24.066Z,2.25
2019-05-14T14:22:53.977Z,10.13
2019-05-14T14:25:23.537Z,2.60
2019-05-14T14:28:22.976Z,3.12
2019-05-14T14:31:24.751Z,2.10
2019-05-14T14:38:08.716Z,4.50
2019-05-14T14:41:31.369Z,1.42
2019-05-14T14:43:43.135Z,3.85
2019-05-14T14:46:13.900Z,2.03
2019-05-14T14:48:41.261Z,1.77
2019-05-14T14:51:10.604Z,2.37
2019-05-14T14:53:52.453Z,2.65
2019-05-14T14:56:10.958Z,3.33
2019-05-14T14:58:40.304Z,2.15
2019-05-14T15:01:09.257Z,4.10
2019-05-14T15:03:38.689Z,2.15
2019-05-14T15:06:10.053Z,2.15
2019-05-14T15:08:39.311Z,1.87
2019-05-14T15:11:08.893Z,1.22
2019-05-14T15:13:48.238Z,2.58
2019-05-14T15:16:20.090Z,4.80
2019-05-14T15:18:49.923Z,6.17
2019-05-14T15:21:19.822Z,6.17
2019-05-14T15:24:05.562Z,2.37
2019-05-14T15:29:10.073Z,1.60
2019-05-14T15:31:42.443Z,3.17
2019-05-14T15:34:11.749Z,2.70
2019-05-14T15:36:51.963Z,1.75
2019-05-14T15:39:22.449Z,1.35
2019-05-14T15:41:51.871Z,1.93
2019-05-14T15:44:22.831Z,3.52
2019-05-14T15:46:52.347Z,3.50
2019-05-14T15:49:21.437Z,2.35
2019-05-14T15:51:50.663Z,3.75
2019-05-14T15:54:35.982Z,2.87
2019-05-14T15:56:54.253Z,3.58
2019-05-14T15:59:23.480Z,2.42
2019-05-14T16:01:52.675Z,1.45
2019-05-14T16:04:22.317Z,2.67
2019-05-14T16:06:51.473Z,2.83
2019-05-14T16:09:20.575Z,4.00
2019-05-14T16:11:51.887Z,3.87
2019-05-14T16:14:21.991Z,1.72
2019-05-14T16:16:51.629Z,2.45
2019-05-14T16:19:23.200Z,1.30
2019-05-14T16:24:22.738Z,6.10
2019-05-14T16:26:52.141Z,9.35
2019-05-14T16:29:36.789Z,6.70
2019-05-14T16:31:54.242Z,6.85
2019-05-14T16:34:23.687Z,11.97
2019-05-14T16:36:53.455Z,7.70
2019-05-14T16:39:23.224Z,7.75
2019-05-14T16:41:58.109Z,10.43
2019-05-14T16:44:28.365Z,9.38
2019-05-14T16:46:58.737Z,8.83
2019-05-14T16:49:29.593Z,8.53
2019-05-14T16:51:59.636Z,8.83
2019-05-14T16:54:31.913Z,57.90
2019-05-14T16:57:01.273Z,117.85
2019-05-14T16:59:30.467Z,91.05
2019-05-14T17:01:59.624Z,66.12
2019-05-14T17:04:29.443Z,69.75
2019-05-14T17:06:59.347Z,51.40
2019-05-14T17:09:28.610Z,49.10
2019-05-14T17:11:58.991Z,45.70
2019-05-14T17:14:33.113Z,40.67
2019-05-14T17:17:30.464Z,40.43
2019-05-14T17:20:08.528Z,44.85
2019-05-14T17:22:48.729Z,45.17
2019-05-14T17:25:27.009Z,46.53
2019-05-14T17:27:55.631Z,38.83
2019-05-14T17:30:24.828Z,37.45
2019-05-14T17:32:55.471Z,41.58
2019-05-14T17:35:24.634Z,44.27
2019-05-14T17:37:58.798Z,33.88
2019-05-14T17:40:28.111Z,34.70
2019-05-14T17:42:59.249Z,32.73
2019-05-14T17:45:30.478Z,31.25
2019-05-14T17:47:59.326Z,27.43
2019-05-14T17:50:29.191Z,36.55
2019-05-14T17:53:00.174Z,35.50
2019-05-14T17:55:43.177Z,48.73
2019-05-14T17:58:00.722Z,32.50
2019-05-14T18:00:30.377Z,24.23
2019-05-14T18:02:59.706Z,26.90
2019-05-14T18:05:29.164Z,25.77
2019-05-14T18:07:59.465Z,31.10
2019-05-14T18:10:28.856Z,25.57
2019-05-14T18:12:59.823Z,23.92
2019-05-14T18:15:30.285Z,26.20
2019-05-14T18:17:59.387Z,23.13
2019-05-14T18:20:29.494Z,19.50
2019-05-14T18:22:58.728Z,18.67
2019-05-14T18:25:29.080Z,20.50
2019-05-14T18:27:58.596Z,25.50
2019-05-14T18:30:29.206Z,20.48
2019-05-14T18:32:58.481Z,21.20
2019-05-14T18:35:29.466Z,22.22
2019-05-14T18:37:58.349Z,13.43
2019-05-14T18:40:28.102Z,17.25
2019-05-14T18:42:59.072Z,10.63
2019-05-14T18:45:29.395Z,14.70
2019-05-14T18:47:59.251Z,15.30
2019-05-14T18:50:28.912Z,14.65
2019-05-14T18:52:59.669Z,21.73
2019-05-14T18:55:29.457Z,11.03
2019-05-14T18:57:59.361Z,15.23
2019-05-14T19:00:29.440Z,15.60
2019-05-14T19:02:58.740Z,12.88
2019-05-14T19:05:29.546Z,9.63
2019-05-14T19:07:59.290Z,9.53
2019-05-14T19:10:28.547Z,9.05
2019-05-14T19:12:58.843Z,8.40
2019-05-14T19:15:28.261Z,8.78
2019-05-14T19:18:00.444Z,8.80
2019-05-14T19:20:33.905Z,8.57
2019-05-14T19:23:02.991Z,13.70
2019-05-14T19:25:32.140Z,8.80
2019-05-14T19:28:01.254Z,11.63
2019-05-14T19:30:30.183Z,7.20
2019-05-14T19:32:59.174Z,10.43
2019-05-14T19:35:28.852Z,8.20
2019-05-14T19:37:59.456Z,5.40
2019-05-14T19:40:28.650Z,7.75
2019-05-14T19:42:57.888Z,7.85
2019-05-14T19:45:28.365Z,6.08
2019-05-14T19:47:58.419Z,11.20
2019-05-14T19:50:29.384Z,8.03
2019-05-14T19:52:58.911Z,7.73
2019-05-14T19:55:28.773Z,9.60
2019-05-14T19:58:00.265Z,6.72
2019-05-14T20:00:29.642Z,6.37
2019-05-14T20:02:58.556Z,4.58
2019-05-14T20:05:28.656Z,9.45
2019-05-14T20:07:58.130Z,6.00
2019-05-14T20:10:29.181Z,10.05
2019-05-14T20:12:59.278Z,13.23
2019-05-14T20:15:28.373Z,10.60
2019-05-14T20:18:02.662Z,19.70
2019-05-14T20:20:34.899Z,9.28
2019-05-14T20:23:11.131Z,9.00
2019-05-14T20:25:40.131Z,9.38
2019-05-14T20:28:09.129Z,7.12
2019-05-14T20:30:49.588Z,7.50
2019-05-14T20:33:19.055Z,7.08
2019-05-14T20:35:50.519Z,11.63
2019-05-14T20:38:19.665Z,5.83
2019-05-14T20:40:48.899Z,4.35
2019-05-14T20:43:18.681Z,7.67
2019-05-14T20:45:48.892Z,10.98
2019-05-14T20:48:18.796Z,5.95
2019-05-14T20:50:48.390Z,6.95
2019-05-14T20:53:18.604Z,6.37
2019-05-14T20:55:47.907Z,7.25
2019-05-14T20:58:19.949Z,4.00
2019-05-14T21:00:53.378Z,4.37
2019-05-14T21:03:22.469Z,6.85
2019-05-14T21:05:51.702Z,4.78
2019-05-14T21:08:20.894Z,6.17
2019-05-14T21:10:49.950Z,4.65
2019-05-14T21:13:19.193Z,2.77
2019-05-14T21:15:48.389Z,5.00
2019-05-14T21:18:18.966Z,5.92
2019-05-14T21:20:49.135Z,4.20
2019-05-14T21:23:18.684Z,3.58
2019-05-14T21:25:50.455Z,3.77
2019-05-14T21:28:19.651Z,3.55
2019-05-14T21:30:48.744Z,8.98
2019-05-14T21:33:17.725Z,3.77
2019-05-14T21:35:48.481Z,3.50
2019-05-14T21:38:32.775Z,5.45
2019-05-14T21:41:02.009Z,3.50
2019-05-14T21:43:31.041Z,4.42
2019-05-14T21:46:00.205Z,2.47
2019-05-14T21:48:30.674Z,3.87
2019-05-14T21:51:00.875Z,2.98
2019-05-14T21:53:30.247Z,2.72
2019-05-14T21:56:02.897Z,4.17
2019-05-14T21:58:38.885Z,4.60
2019-05-14T22:01:18.815Z,3.08
2019-05-14T22:03:48.619Z,3.17
2019-05-14T22:06:29.057Z,3.80
2019-05-14T22:09:03.479Z,2.70
2019-05-14T22:11:35.576Z,2.80
2019-05-14T22:14:05.052Z,2.98
2019-05-14T22:16:34.711Z,4.47
2019-05-14T22:19:32.027Z,2.42
2019-05-14T22:22:04.500Z,2.55
2019-05-14T22:24:34.088Z,7.58
2019-05-14T22:27:11.546Z,3.30
2019-05-14T22:33:10.830Z,2.75
2019-05-14T22:35:41.317Z,3.75
2019-05-14T22:38:10.375Z,2.55
2019-05-14T22:41:04.420Z,2.85
2019-05-14T22:43:51.620Z,2.35
2019-05-14T22:46:26.849Z,4.40
2019-05-14T22:48:58.204Z,6.45
2019-05-14T22:51:42.666Z,2.58
2019-05-14T22:54:49.358Z,2.65
2019-05-14T22:57:23.650Z,4.37
2019-05-14T22:59:50.407Z,2.60
2019-05-14T23:02:19.715Z,2.15
2019-05-14T23:04:53.718Z,4.30
2019-05-14T23:07:25.499Z,3.45
2019-05-14T23:12:26.101Z,2.17
2019-05-14T23:14:58.212Z,1.25
2019-05-14T23:20:04.046Z,1.90
2019-05-14T23:22:33.829Z,2.42
2019-05-14T23:25:09.042Z,2.35
2019-05-14T23:27:41.280Z,2.10
2019-05-14T23:30:10.998Z,3.42
2019-05-14T23:32:41.008Z,2.85
2019-05-14T23:35:12.868Z,2.17
2019-05-14T23:37:42.551Z,2.10
2019-05-14T23:40:39.220Z,1.37
2019-05-14T23:47:19.295Z,3.35
2019-05-14T23:49:48.712Z,2.00
2019-05-14T23:52:21.110Z,2.27
2019-05-14T23:54:59.625Z,1.25
2019-05-14T23:57:36.136Z,1.80
